Skip Ribbon Commands
Skip to main content

    Pipeline Emergency

  • (888) 367-6671
  • (402) 398-7911

    General Information

  • (877) 654-0646
  • (402) 398-7200

    Customer Service

  • (402) 960-7947
  • (402) 960-7948

    Call Before You Dig

  • Call 811

Gas Quality By Date / Gas Quality By ID

Date Requested: Aug 14 2022 11:00 PM

Printable Version

Comments:

The data contained herein is preliminary data and therefore should be used for contemporaneous operational purposes only and may be subject to change at month-end. This data is provided to assist our customers in tracking their gas usage as closely as possible on a real-time basis. The information contained on this web page is not to be considered billable information. This data will be subject to additional verification and possible modification prior to billing.

  • The Btu specified is on a higher heating value (HHV) basis.
  • Gas  constituents specified as percent (%) by volume.
  • Gas Quality by ID information for the current Gas Day is updated for all location ID's after 11:00 a.m.
TSP Name:
Northern Natural Gas Company
TSP:
784158214
Gas Quality by Date
0018NPPD BEATRICE POWER - ONLINE 1075.920 1.271 0.711 0.622 88.724 8.164 0.943 0.051 0.099 0.014 0.014 0.005 0.004 0.000 0.000 08/14/2022
0019CHEYENNE PLAINS I/C ONLINE 1089.307 1.120 1.253 0.634 86.934 8.704 1.754 0.085 0.128 0.011 0.006 0.002 0.001 0.000 0.000 08/14/2022
0021BEATRICE K M MILLIGAN MONITOR 1050.297 0.833 1.981 0.612 89.736 6.625 0.709 0.031 0.063 0.008 0.008 0.004 0.004 0.000  08/14/2022
0050PLAINVIEW ONLINE 1019.139 0.093 4.055 0.602 90.495 4.684 0.580 0.022 0.061 0.005 0.004 0.000 0.000 0.000 0.000 08/14/2022
0092BUSHTON BUILDING 3 FUEL 1018.447 0.168 3.600 0.598 91.277 4.456 0.428 0.018 0.042 0.005 0.004 0.002    08/14/2022
0093BUSHTON BUILDING 2 FUEL 1018.447 0.168 3.602 0.598 91.273 4.459 0.428 0.018 0.042 0.005 0.004 0.002    08/14/2022
0095BUSHTON B DISCHARGE 1023.005 0.123 3.692 0.601 90.831 4.704 0.517 0.029 0.069 0.010 0.011 0.007 0.005 0.000 0.000 08/14/2022
0096BUSHTON C DISCHARGE 1023.296 0.167 3.562 0.601 90.857 4.824 0.501 0.021 0.053 0.006 0.006 0.002 0.001 0.000 0.000 08/14/2022
0097BUSHTON D DISCHARGE 1018.911 0.157 3.607 0.598 91.246 4.478 0.437 0.018 0.045 0.005 0.005 0.001 0.001 0.000 0.000 08/14/2022
0101ENTERPRISE TX PL SPRABERRY REC ONLINE 999.230 0.031 3.673 0.585 93.487 2.696 0.099 0.003 0.008 0.001 0.001 0.000 0.000 0.000 0.000 08/14/2022
0683ENABLE REDMOON ONLINE 1010.846 0.453 0.874 0.569 97.468 1.111 0.087 0.003 0.003 0.000 0.000 0.000 0.000 0.000 0.000 08/14/2022
1021PERMIAN HIGHWAY DELIVERY ONLINE 1021.795 0.035 1.274 0.574 96.087 2.521 0.067 0.004 0.007 0.001 0.002 0.001 0.001 0.000 0.000 08/14/2022
1022WHISTLER TX ONLINE 1002.370 0.061 4.235 0.593 91.837 3.646 0.185 0.008 0.020 0.003 0.003 0.001 0.001 0.000 0.000 08/14/2022
2020MILFORD NE 1071.915 1.212 0.640 0.618 89.300 7.884 0.838 0.038 0.068 0.007 0.007 0.000 0.000 0.000 0.000 08/14/2022
2021REX NNG GAGE COUNTY ONLINE 1065.867 1.515 0.440 0.617 89.194 8.439 0.381 0.010 0.016 0.001 0.001 0.001 0.001 0.000 0.000 08/14/2022
2040PALMYRA B SUCTION 1047.202 0.589 2.446 0.611 89.622 6.533 0.681 0.034 0.069 0.009 0.009 0.003 0.003   08/14/2022
2042PALMYRA OAKLAND B LINE DISCHARGE 1045.326 0.635 2.318 0.609 90.022 6.247 0.653 0.032 0.069 0.009 0.009 0.004 0.001   08/14/2022
2043PALMYRA OAKLAND C LINE DISCHARGE 1045.629 0.642 2.300 0.609 90.013 6.264 0.655 0.032 0.069 0.009 0.009 0.004 0.001   08/14/2022
2044PALMYRA OAKLAND D LINE DISCHARGE 1046.094 0.630 2.299 0.610 90.017 6.247 0.674 0.034 0.073 0.009 0.010 0.004 0.002   08/14/2022
2046PALMYRA HOOPER B DISCHARGE 1045.503 0.638 2.316 0.609 90.008 6.257 0.654 0.032 0.070 0.009 0.009 0.004 0.002   08/14/2022
2047PALMYRA HOOPER C DISCHARGE 1046.075 0.629 2.300 0.610 90.024 6.241 0.672 0.034 0.073 0.010 0.010 0.004 0.002   08/14/2022
2048PALMYRA LINCOLN 14 INCH B LINE 1045.892 0.621 2.305 0.609 90.069 6.191 0.675 0.035 0.075 0.010 0.010 0.004 0.002   08/14/2022
2049PALMYRA LINCOLN 12 INCH B LINE 1045.224 0.642 2.295 0.609 90.068 6.226 0.646 0.031 0.068 0.009 0.009 0.003 0.002   08/14/2022
2050SOUTH SIOUX C LINE 1058.744 1.016 1.507 0.615 89.349 7.279 0.724 0.033 0.066 0.009 0.008 0.009    08/14/2022
2051SOUTH SIOUX B LINE 1058.609 1.021 1.462 0.615 89.428 7.275 0.686 0.033 0.066 0.009 0.009 0.010    08/14/2022
2053PAULLINA TO HARRISBURG ML 1091.102 1.006 2.647 0.648 82.245 12.971 0.914 0.021 0.036 0.002 0.002 0.000 0.000 0.155  08/14/2022
2054TERRA CHEMICAL ONLINE 1059.695 1.009 1.452 0.615 89.369 7.317 0.728 0.034 0.067 0.009 0.009 0.003 0.003 0.000 0.000 08/14/2022
2055ABERDEEN 20 INCH MAINLINE 1089.241 0.988 2.473 0.645 82.924 12.433 0.937 0.024 0.042 0.002 0.002 0.000 0.000 0.152 0.024 08/14/2022
2056SIOUX FALLS 14 LINE 1088.346 0.990 2.455 0.644 83.058 12.332 0.920 0.023 0.041 0.002 0.002 0.000 0.000 0.153 0.024 08/14/2022
2057SIOUX FALLS MASTER 1089.312 0.987 2.471 0.645 82.916 12.442 0.936 0.024 0.042 0.002 0.002 0.000 0.000 0.155 0.024 08/14/2022
2060LASTRUP MN GQ 1047.670 0.675 0.589 0.593 92.980 5.520 0.210 0.009 0.013 0.002 0.001 0.000 0.000 0.000 0.000 08/14/2022
2063ALVORD IA 1010.277 0.556 0.420 0.566 98.321 0.651 0.049 0.002 0.003 0.000 0.000 0.000 0.000 0.000 0.000 08/14/2022
2064BALTIC TAKE OFF 1086.212 0.995 2.530 0.643 83.153 12.246 0.863 0.022 0.040 0.002 0.002 0.000 0.000 0.147 0.000 08/14/2022
2065CHEROKEE NORTH PROBE 1 1092.129 1.008 2.634 0.648 82.251 12.993 0.937 0.021 0.040 0.002 0.002 0.000 0.000 0.113 0.000 08/14/2022
2071OMAHA 1ST BRANCH LINE MYNARD 1050.393 0.765 2.007 0.611 89.810 6.623 0.665 0.033 0.070 0.009 0.010 0.000 0.000 0.000 0.000 08/14/2022
2072OMAHA 2ND BRANCH LINE BAY ROAD 1050.664 0.785 2.076 0.613 89.590 6.737 0.677 0.034 0.073 0.010 0.010 0.000 0.000 0.000 0.000 08/14/2022
2073OMAHA 3RD LINE 1052.115 0.733 2.023 0.612 89.734 6.632 0.723 0.039 0.084 0.012 0.012 0.000 0.000 0.000 0.000 08/14/2022
2080HUDSON ETHANOL TAKEOFF 1054.398 0.892 1.694 0.613 89.729 6.877 0.680 0.034 0.067 0.010 0.010 0.000 0.000 0.000 0.000 08/14/2022
2083CANTON LENNOX SD TAKEOFF 1044.569 0.666 2.059 0.607 90.596 5.955 0.603 0.030 0.064 0.009 0.010 0.000 0.000 0.000 0.000 08/14/2022
2250HARLAN D LINE 1087.053 0.940 2.514 0.643 83.540 12.034 0.899 0.023 0.043 0.003 0.003 0.000 0.000 0.000 0.000 08/14/2022
2301GLENWOOD IA ONLINE 1059.797 0.637 1.479 0.610 89.919 7.346 0.523 0.028 0.053 0.008 0.008 0.000 0.000 0.000 0.000 08/14/2022
3001EL PASO DUMAS ONLINE 1028.958 0.062 3.023 0.597 91.688 4.600 0.507 0.031 0.066 0.010 0.009 0.003 0.003 0.000 0.000 08/14/2022
3031OGDEN REDFIELD B 1077.444 0.891 2.644 0.637 84.534 11.041 0.815 0.022 0.044 0.004 0.004 0.002    08/14/2022
3032OGDEN AMES A - J LINES 1089.689 1.005 2.699 0.648 82.553 12.815 0.874 0.018 0.033 0.002 0.001 0.000    08/14/2022
3033OGDEN DES MOINES B LINE 1088.866 0.999 2.692 0.647 82.708 12.663 0.880 0.019 0.035 0.002 0.002 0.000    08/14/2022
3034OGDEN B LINE NORTH 1083.276 0.944 2.666 0.642 83.611 11.867 0.846 0.020 0.039 0.003 0.003 0.002    08/14/2022
3036OGDEN PLANT 3 FUEL 1089.937 1.006 2.699 0.648 82.521 12.842 0.878 0.018 0.033 0.001 0.001 0.000    08/14/2022
3037OGDEN WATERLOO B - C 1090.001 1.006 2.700 0.648 82.516 12.845 0.880 0.018 0.033 0.001 0.001 0.000    08/14/2022
3038OGDEN DES MOINES A STREAM 1085.663 0.964 2.624 0.643 83.360 12.124 0.866 0.020 0.037 0.002 0.002 0.001    08/14/2022
3039OGDEN REDFIELD C 1084.732 0.959 2.679 0.643 83.352 12.096 0.852 0.020 0.037 0.002 0.002 0.001    08/14/2022
3044GRAND JUNCTION ONLINE 1052.262 0.666 2.503 0.616 88.616 7.365 0.698 0.032 0.071 0.009 0.010 0.000 0.000 0.030 0.000 08/14/2022
3052ELITE OCTANE ETHANOL IA ONLINE 1072.699 0.844 2.260 0.629 86.021 9.902 0.802 0.027 0.052 0.005 0.005 0.000 0.000 0.082 0.000 08/14/2022
3054DODGE CITY KS BIOGAS FORD ONLINE 1007.672 0.031 0.624 0.558 99.345 0.000 0.000 0.000 0.000 0.000 0.000 0.000 0.000 0.000 0.000 08/14/2022
3063GEVO BIOGAS RECEIPT DOON IA 1006.369 0.101 0.684 0.559 99.214 0.000 0.000 0.000 0.000 0.000 0.000 0.000 0.000 0.000 0.000 08/14/2022
3064GEVO BIOGAS DELIVERY DOON IA 1013.972 0.184 0.823 0.566 97.800 0.000 0.082 0.002 0.004 0.000 0.000 0.000 0.000 0.000 0.000 08/14/2022
3372VENTURA NBPL B NORTH 1091.996 1.011 2.509 0.647 82.437 12.921 0.888 0.018 0.034 0.002 0.002 0.014  0.141 0.024 08/14/2022
3373VENTURA NBPL C NORTH 1089.648 1.010 2.710 0.648 82.245 12.900 0.886 0.018 0.034 0.002 0.002 0.014  0.152 0.026 08/14/2022
3374VENTURA NBPL B SOUTH 1090.786 1.010 2.605 0.647 82.356 12.903 0.885 0.018 0.034 0.002 0.002 0.014  0.146 0.025 08/14/2022
3376VENTURA NBPL INPUT NNG 1088.685 1.010 2.792 0.648 82.172 12.890 0.885 0.018 0.034 0.002 0.002 0.014  0.155 0.027 08/14/2022
3700WATERLOO COMPRESSOR STATION 1089.764 1.002 2.668 0.647 82.374 12.845 0.899 0.020 0.037 0.002 0.002 0.000    08/14/2022
3800KOCH INDUSTRIES LEHIGH ONLINE 1080.867 1.001 2.450 0.639 84.247 11.418 0.828 0.019 0.034 0.001 0.001 0.000 0.000 0.000 0.000 08/14/2022
3801CENTERPOINT ENERGY STORAGE NORTH 1093.833 1.032 2.152 0.645 83.023 12.673 0.915 0.022 0.040 0.002 0.002 0.000 0.000 0.139 0.000 08/14/2022
3802CENTERPOINT ENERGY STORAGE SOUTH 1093.728 1.032 2.153 0.645 83.034 12.662 0.914 0.022 0.040 0.002 0.002 0.000 0.000 0.139 0.000 08/14/2022
3803CENTERPOINT ENERGY STORAGE FIELD 1093.361 1.031 2.153 0.644 83.082 12.625 0.908 0.022 0.040 0.002 0.002 0.000 0.000 0.136 0.000 08/14/2022
3810ALBERT LEA- B LINE DISCHARGE 1091.156 0.987 2.511 0.646 82.576 12.738 0.940 0.022 0.040 0.002 0.002 0.001  0.157 0.024 08/14/2022
3811ALBERT LEA- C LINE DISCHARGE 1090.088 0.993 2.534 0.646 82.633 12.663 0.930 0.021 0.039 0.002 0.002 0.001  0.158 0.024 08/14/2022
3812ALBERT LEA- D LINE DISCHARGE 1089.025 1.008 2.666 0.647 82.370 12.828 0.890 0.019 0.034 0.001 0.001 0.001  0.158 0.025 08/14/2022
4041FARMINGTON B SUCTION 1091.156 0.987 2.511 0.646 82.576 12.738 0.940 0.022 0.040 0.002 0.002 0.001  0.157 0.024 08/14/2022
4042FARMINGTON C SUCTION 1089.701 0.992 2.490 0.645 83.092 12.479 0.886 0.021 0.038 0.002 0.002 0.000    08/14/2022
4043FARMINGTON B DISCHARGE 1091.218 0.995 2.550 0.647 82.391 12.893 0.928 0.022 0.040 0.002 0.002 0.000 0.000 0.176  08/14/2022
4044PORTLAND 1073.060 0.955 2.483 0.634 84.784 10.905 0.669 0.017 0.033 0.002 0.002 0.001 0.000 0.150  08/14/2022
4045FARMINGTON C DISCHARGE 1091.218 0.995 2.550 0.647 82.391 12.893 0.928 0.022 0.040 0.002 0.002 0.000 0.000 0.176  08/14/2022
4122HUGO- ELK RIVER RICE LAKE 1043.788 0.643 0.638 0.591 93.453 5.020 0.221 0.009 0.014 0.001 0.000 0.001    08/14/2022
4141DENISON IA 1083.133 0.916 2.512 0.640 84.057 11.565 0.866 0.023 0.043 0.003 0.003 0.000 0.000 0.012 0.000 08/14/2022
4161NORTH BRANCH B LINE NORTH 1045.876 0.668 0.577 0.592 93.217 5.336 0.183 0.008 0.010 0.001 0.000 0.001    08/14/2022
4162NORTH BRANCH B LINE SOUTH 1047.160 0.675 0.587 0.593 93.024 5.497 0.196 0.008 0.011 0.001 0.000 0.001    08/14/2022
4163NORTH BRANCH ST CLOUD 1046.464 0.666 0.614 0.592 93.097 5.386 0.214 0.009 0.013 0.001 0.000 0.001    08/14/2022
4241CARLTON MESABI IRON RANGE 1048.653 0.687 0.483 0.593 92.959 5.732 0.126 0.006 0.005 0.001 0.000 0.000 0.000   08/14/2022
4242CARLTON SOUTH 1048.777 0.687 0.484 0.593 92.943 5.747 0.126 0.006 0.005 0.001 0.000 0.000 0.000   08/14/2022
4243CARLTON GREAT LAKES 1048.663 0.687 0.483 0.593 92.958 5.734 0.126 0.006 0.005 0.001 0.000 0.000 0.000   08/14/2022
4251WRENSHALL-MARQUETTE BRANCH 1039.706 0.590 0.685 0.588 93.836 4.789 0.092 0.004 0.003 0.000 0.000 0.000    08/14/2022
4252WRENSHALL SUPERIOR 1042.542 0.650 0.502 0.589 93.769 4.967 0.103 0.004 0.004 0.000 0.000 0.000    08/14/2022
4301MINNEAPOLIS 1P NORTH 1090.640 1.007 2.634 0.647 82.342 12.883 0.916 0.021 0.039 0.002 0.002 0.000 0.000 0.155 0.000 08/14/2022
4303MINN 1P - WILMAR B LINE 1090.572 1.006 2.634 0.647 82.352 12.874 0.915 0.021 0.039 0.002 0.002 0.000 0.000 0.154 0.000 08/14/2022
4304MINN 1P - WILMAR C LINE 1090.677 1.006 2.632 0.647 82.341 12.884 0.916 0.021 0.039 0.002 0.002 0.000 0.000 0.156 0.000 08/14/2022
5014MILLIGAN INTER BI DIR ONLINE 1073.853 1.335 0.414 0.619 89.108 8.335 0.705 0.031 0.055 0.006 0.006 0.002 0.002 0.000 0.000 08/14/2022
5300DCP LINAM RANCH PLANT OUTLET ONLINE 1010.675 0.000 2.900 0.583 93.802 3.242 0.046 0.002 0.005 0.001 0.001 0.000 0.000 0.000 0.000 08/14/2022
5609NAVITAS NEWBERRY PLANT ONLINE 1009.719 0.000 3.784 0.592 91.893 4.231 0.091 0.000 0.000 0.000 0.000 0.000 0.000 0.000 0.000 08/14/2022
6017AQUA BLANCA ONLINE 1022.023 0.042 1.425 0.575 95.706 2.730 0.078 0.004 0.009 0.002 0.002 0.001 0.001 0.000 0.000 08/14/2022
6019GCX WAHA ONLINE 1017.577 0.000 0.788 0.565 97.762 1.432 0.017 0.000 0.000 0.000 0.000 0.000 0.000 0.000 0.000 08/14/2022
6422MEADE TBS ONLINE 1022.687 0.151 3.168 0.596 91.817 4.313 0.477 0.019 0.045 0.005 0.005 0.000 0.000   08/14/2022
6585CORONADO MIDMAR MARTIN CTY ONLINE 987.784 0.002 4.365 0.584 93.347 2.245 0.039 0.000 0.001 0.000 0.000 0.000 0.000 0.000 0.000 08/14/2022
6587FASKEN ONLINE 1033.818 0.000 3.233 0.601 90.024 6.666 0.078 0.000 0.000 0.000 0.000 0.000 0.000 0.000 0.000 08/14/2022
6588AMERICAN YELLOW ROSE ONLINE 1243.018 0.442 4.037 0.751 72.865 12.062 8.234 0.517 1.581 0.138 0.108 0.009 0.009 0.000 0.000 08/14/2022
6589HESS SEMINOLE ONLINE 1018.885 0.093 4.129 0.603 90.375 4.716 0.588 0.024 0.064 0.006 0.005 0.000 0.000 0.000 0.000 08/14/2022
6590RIPTIDE ONLINE 1003.134 0.002 4.198 0.592 91.773 3.946 0.080 0.000 0.000 0.000 0.000 0.000 0.000 0.000 0.000 08/14/2022
6614OASIS BAKERSFIELD PECOS CTY ONLINE 1016.199 0.026 2.710 0.585 93.527 3.607 0.127 0.002 0.001 0.000 0.000 0.000 0.000 0.000 0.000 08/14/2022
6850MULLINVILLE BUILDING 2 FUEL ONLINE 1030.078 0.334 3.194 0.604 90.532 5.250 0.601 0.026 0.050 0.006 0.005 0.001 0.001   08/14/2022
6851MULLINVILLE B C DISCHARGE ONLINE 1023.299 0.180 3.667 0.602 90.610 4.939 0.503 0.023 0.058 0.009 0.009 0.002 0.002 0.000 0.000 08/14/2022
6852MULLINVILLE E LINE NORTH ONLINE 1021.958 0.214 3.462 0.600 91.055 4.755 0.444 0.018 0.039 0.006 0.005 0.001 0.001 0.000 0.000 08/14/2022
6853E LINE SOUTH MULL ONLINE 1021.389 0.211 3.446 0.599 91.153 4.692 0.430 0.018 0.037 0.005 0.005 0.001 0.001 0.000 0.000 08/14/2022
6854MULLINVILLE D LINE ONLINE 1020.730 0.197 3.590 0.600 90.944 4.766 0.432 0.017 0.039 0.006 0.006 0.001 0.001 0.000 0.000 08/14/2022
6858PEPL MULL/GREENSBURG ONLINE 1021.147 0.113 3.989 0.603 89.870 5.792 0.192 0.011 0.021 0.004 0.005 0.002 0.002 0.000 0.000 08/14/2022
6861SPRABERRY TO ATMOS FUEL ONLINE 1046.981 0.159 2.344 0.603 91.020 5.607 0.693 0.034 0.099 0.014 0.016 0.007 0.007 0.000 0.000 08/14/2022
6862ATMOS SPRABERRY GQP ONLINE 1045.125 0.153 2.348 0.602 91.169 5.532 0.638 0.031 0.088 0.013 0.014 0.006 0.006 0.000 0.000 08/14/2022
6863ETC C LINE ONLINE 1045.994 0.826 1.166 0.601 91.682 5.918 0.385 0.007 0.012 0.002 0.002 0.001 0.001 0.000 0.000 08/14/2022
6867MWP POWERTEX HOCKLEY ONLINE 1015.462 0.093 4.122 0.601 90.765 4.400 0.527 0.022 0.061 0.005 0.004 0.000 0.000 0.000 0.000 08/14/2022
7900TARGA EUNICE PLANT ONLINE 1018.810 0.000 2.775 0.587 93.260 3.753 0.156 0.011 0.025 0.006 0.007 0.004 0.004 0.000 0.000 08/14/2022
8037PINNACLE LEA #2 ONLINE 1013.573 0.021 2.960 0.586 93.301 3.609 0.090 0.005 0.010 0.002 0.002 0.000 0.000 0.000 0.000 08/14/2022
8044SEMCO MARQUETTE I/C 1036.676 0.600 0.544 0.584 94.549 4.201 0.095 0.005 0.004 0.001 0.001 0.000 0.000 0.000 0.000 08/14/2022
8045CCI MINE NNG MAINLINE 1035.345 0.575 0.690 0.585 94.495 4.087 0.138 0.006 0.007 0.001 0.001 0.000 0.000 0.000 0.000 08/14/2022
8046CCI MINE 1034.826 0.569 0.674 0.584 94.603 4.006 0.132 0.006 0.007 0.001 0.001 0.000 0.000 0.000 0.000 08/14/2022
8050VAQUERO CAYMUS ONLINE 1016.541 0.000 0.891 0.566 97.657 1.435 0.017 0.000 0.000 0.000 0.000 0.000 0.000 0.000 0.000 08/14/2022
8080TARGA MIDKIFF ONLINE 1047.948 0.160 2.349 0.604 90.938 5.636 0.731 0.037 0.105 0.015 0.017 0.006 0.006 0.000 0.000 08/14/2022
8081TARGA DRIVER ONLINE 999.728 0.000 2.560 0.573 95.978 1.435 0.027 0.000 0.000 0.000 0.000 0.000 0.000 0.000 0.000 08/14/2022
8082TARGA EDWARDS ONLINE 1016.650 0.026 2.689 0.585 93.520 3.631 0.130 0.001 0.002 0.000 0.000 0.000 0.000 0.000 0.000 08/14/2022
8083TARGA BUFFALO ONLINE 964.674 0.000 5.819 0.585 92.960 1.204 0.017 0.000 0.000 0.000 0.000 0.000 0.000 0.000 0.000 08/14/2022
8086WTG HI PLAINS ONLINE 1022.157 0.362 3.198 0.600 91.284 4.663 0.419 0.019 0.039 0.006 0.006 0.002 0.002   08/14/2022
8271ISHPEMING MICHIGAN 1034.577 0.578 0.558 0.583 94.848 3.903 0.101 0.005 0.004 0.001 0.001 0.000 0.000 0.000 0.000 08/14/2022
8310CIG DUMAS ONLINE 1073.901 1.485 0.630 0.623 89.041 7.416 1.184 0.066 0.129 0.019 0.020 0.005 0.005 0.000 0.000 08/14/2022
8560ONEOK REEVES ONLINE 1016.158 0.000 0.887 0.565 97.715 1.382 0.016 0.000 0.000 0.000 0.000 0.000 0.000 0.000 0.000 08/14/2022
8561EL PASO PLAINS 26 INCH 1018.095 0.077 3.916 0.600 90.889 4.540 0.494 0.020 0.054 0.005 0.004 0.000 0.000 0.000 0.000 08/14/2022
8562EL PASO WAHA ONLINE 1019.957 0.003 0.823 0.567 97.390 1.743 0.039 0.001 0.001 0.000 0.000 0.000 0.000 0.000 0.000 08/14/2022
8564EL PASO PLAINS 30 INCH 1018.428 0.053 3.140 0.592 92.455 4.005 0.294 0.013 0.032 0.004 0.004 0.000 0.000 0.000 0.000 08/14/2022
8682SOUTHERN STAR KIOWA I/C ONLINE 1052.863 0.025 2.690 0.608 89.430 7.133 0.676 0.017 0.025 0.002 0.001 0.000 0.000 0.000 0.000 08/14/2022
9002ETC TIPPETT PLANT ONLINE 1014.023 0.105 1.235 0.569 96.971 1.645 0.042 0.001 0.001 0.000 0.000 0.000 0.000 0.000 0.000 08/14/2022
9020WTG MARTIN CTY ONLINE 1053.555 0.339 3.839 0.626 86.255 8.513 1.018 0.013 0.022 0.001 0.001 0.000 0.000 0.000 0.000 08/14/2022
9030MWP ADOBE HOCKLEY ONLINE 1014.916 0.096 4.177 0.601 90.705 4.397 0.529 0.023 0.062 0.005 0.004 0.000 0.000 0.000 0.000 08/14/2022
9037PINNACLE LEA #1 ONLINE 1012.761 0.021 2.975 0.586 93.363 3.538 0.085 0.004 0.009 0.002 0.002 0.000 0.000 0.000 0.000 08/14/2022
9038DODGE CITY ONLINE 1018.577 0.133 3.647 0.598 91.245 4.464 0.438 0.018 0.045 0.005 0.004 0.001 0.001 0.000 0.000 08/14/2022
9044GOLDEN SPREAD MUSTANG ONLINE 1015.322 0.061 3.618 0.595 91.805 4.092 0.357 0.015 0.042 0.004 0.004 0.000 0.000 0.000 0.000 08/14/2022
9048CLIFTON B LINE ONLINE 1047.026 0.841 2.407 0.615 89.462 6.336 0.755 0.043 0.085 0.015 0.016 0.020 0.020 0.000 0.000 08/14/2022
9049CLIFTON C LINE ONLINE 1020.751 0.156 3.287 0.596 91.691 4.399 0.405 0.015 0.038 0.004 0.004 0.001 0.001 0.000 0.000 08/14/2022
9050CLIFTON D LINE ONLINE 1020.743 0.155 3.287 0.596 91.694 4.396 0.405 0.015 0.038 0.004 0.004 0.001 0.001 0.000 0.000 08/14/2022
9051CLIFTON E LINE ONLINE 1021.203 0.148 3.288 0.596 91.657 4.431 0.412 0.016 0.039 0.004 0.004 0.001 0.001 0.000 0.000 08/14/2022
9061OPPD CASS CO POWER ONLINE 1054.675 0.855 1.763 0.613 89.700 6.834 0.716 0.036 0.075 0.011 0.011 0.000 0.000 0.000 0.000 08/14/2022
9062KM YATES ONLINE 1016.534 0.004 2.704 0.585 93.549 3.611 0.129 0.001 0.002 0.000 0.000 0.000 0.000 0.000 0.000 08/14/2022
9063JENNY BARKER KS ONLINE 1086.458 1.641 0.512 0.633 87.509 8.744 1.322 0.072 0.144 0.022 0.023 0.005 0.005 0.000 0.000 08/14/2022
9065JAYHAWK ONLINE 1065.748 0.158 12.255 0.722 74.238 6.428 3.912 0.486 1.181 0.269 0.308 0.194 0.194 0.000 0.355 08/14/2022
9067ETC SPEARMAN C LINE ONLINE 1021.496 0.690 1.444 0.586 94.292 3.426 0.122 0.006 0.013 0.003 0.003 0.001 0.001 0.000 0.000 08/14/2022
9068MEADOWLARK GARDEN CITY ONLINE 1081.059 1.554 0.532 0.628 88.117 8.404 1.169 0.060 0.120 0.018 0.018 0.005 0.002   08/14/2022
9069GOLDEN SPREAD ANTELOPE ONLINE 1014.805 0.097 4.220 0.601 90.634 4.414 0.539 0.023 0.063 0.005 0.004 0.001 0.000 0.000 0.000 08/14/2022
9070SUNRAY COMP FUEL ONLINE 1022.626 0.271 3.622 0.603 90.577 4.921 0.521 0.024 0.048 0.007 0.006 0.002 0.002   08/14/2022
9072ATMOS SHALLOWATER ONLINE 1017.706 0.089 4.033 0.601 90.706 4.531 0.546 0.022 0.061 0.005 0.004 0.000 0.000 0.000 0.000 08/14/2022
9074ATMOS MIDLAND STANTON ONLINE 988.742 0.000 4.904 0.590 91.974 3.082 0.040 0.000 0.000 0.000 0.000 0.000 0.000 0.000 0.000 08/14/2022
9421CD BEAVER ONLINE 1026.760 0.354 3.306 0.603 90.692 4.966 0.567 0.029 0.060 0.010 0.010 0.003 0.003 0.000 0.000 08/14/2022
9422KB BEAVER ONLINE 1016.878 0.089 3.754 0.598 91.306 4.340 0.447 0.016 0.042 0.003 0.003 0.000 0.000 0.000 0.000 08/14/2022
9614KB SEMINOLE ONLINE 1018.837 0.093 4.129 0.603 90.381 4.711 0.587 0.024 0.064 0.006 0.005 0.000 0.000 0.000 0.000 08/14/2022
9649BEAVER PLANT GEN ONLINE 1027.798 0.351 3.354 0.605 90.548 5.004 0.602 0.033 0.075 0.013 0.013 0.004 0.004   08/14/2022
9970CUNNINGHAM INJECTION ONLINE 1020.130 0.142 3.335 0.596 91.692 4.368 0.400 0.016 0.037 0.004 0.004 0.001 0.001 0.000 0.000 08/14/2022
9971CUNNINGHAM WITHDRAWAL ONLINE 1020.500 0.140 3.761 0.601 90.745 4.809 0.469 0.019 0.046 0.005 0.004 0.001 0.001 0.000 0.000 08/14/2022
9976SUPERIOR HEMPHILL PLANT ONLINE 1077.390 0.774 0.786 0.616 88.301 10.003 0.133 0.001 0.001 0.000 0.000 0.000 0.000 0.000 0.000 08/14/2022